createdAt,value
2023-03-22T00:01:30.980Z,6.97
2023-03-22T00:03:57.878Z,6.00
2023-03-22T00:06:25.175Z,7.13
2023-03-22T00:08:53.119Z,361.35
2023-03-22T00:11:21.088Z,332.80
2023-03-22T00:13:47.778Z,423.63
2023-03-22T00:16:15.155Z,382.73
2023-03-22T00:18:41.987Z,7.32
2023-03-22T00:21:13.267Z,7.90
2023-03-22T00:23:40.705Z,265.70
2023-03-22T00:26:08.664Z,402.13
2023-03-22T00:28:36.589Z,397.02
2023-03-22T00:31:04.246Z,425.58
2023-03-22T00:33:32.097Z,385.98
2023-03-22T00:36:01.289Z,422.17
2023-03-22T00:38:42.621Z,422.17
2023-03-22T00:41:19.040Z,5.80
2023-03-22T00:43:47.333Z,4.93
2023-03-22T00:46:15.791Z,6.90
2023-03-22T00:48:43.085Z,7.85
2023-03-22T00:51:10.870Z,4.95
2023-03-22T00:53:41.904Z,472.20
2023-03-22T00:56:10.774Z,458.05
2023-03-22T00:58:44.082Z,278.65
2023-03-22T01:01:14.092Z,8.68
2023-03-22T01:03:42.101Z,92.70
2023-03-22T01:06:10.543Z,417.27
2023-03-22T01:08:38.654Z,445.92
2023-03-22T01:11:07.095Z,344.98
2023-03-22T01:13:34.285Z,10.00
2023-03-22T01:16:01.144Z,407.20
2023-03-22T01:18:27.989Z,354.55
2023-03-22T01:20:54.751Z,429.70
2023-03-22T01:23:21.506Z,5.32
2023-03-22T01:25:48.321Z,406.65
2023-03-22T01:28:15.476Z,387.10
2023-03-22T01:30:42.661Z,343.50
2023-03-22T01:33:09.712Z,409.55
2023-03-22T01:35:36.906Z,431.00
2023-03-22T01:38:05.675Z,207.07
2023-03-22T01:40:35.996Z,418.40
2023-03-22T01:43:03.337Z,422.77
2023-03-22T01:45:35.698Z,427.02
2023-03-22T01:48:11.250Z,450.13
2023-03-22T01:50:42.557Z,203.15
2023-03-22T01:53:13.570Z,27.88
2023-03-22T01:55:41.395Z,405.65
2023-03-22T01:58:12.425Z,288.52
2023-03-22T02:00:49.429Z,413.35
2023-03-22T02:04:03.371Z,2.78
2023-03-22T02:06:32.342Z,2.50
2023-03-22T02:09:09.116Z,3.60
2023-03-22T02:11:41.497Z,2.83
2023-03-22T02:14:50.439Z,5.00
2023-03-22T02:17:44.453Z,405.88
2023-03-22T02:20:15.430Z,451.42
2023-03-22T02:23:00.879Z,434.58
2023-03-22T02:25:41.613Z,4.07
2023-03-22T02:28:29.597Z,5.35
2023-03-22T02:31:30.638Z,4.07
2023-03-22T02:34:18.059Z,31.30
2023-03-22T02:37:15.786Z,4.13
2023-03-22T02:40:14.530Z,4.05
2023-03-22T02:42:56.834Z,461.35
2023-03-22T02:45:29.574Z,475.92
2023-03-22T02:50:30.782Z,4.80
2023-03-22T02:53:09.717Z,5.28
2023-03-22T02:55:39.532Z,425.70
2023-03-22T02:58:14.776Z,460.08
2023-03-22T03:00:43.165Z,434.02
2023-03-22T03:03:18.146Z,418.42
2023-03-22T03:05:50.910Z,423.08
2023-03-22T03:08:20.585Z,394.80
2023-03-22T03:10:48.261Z,5.15
2023-03-22T03:13:17.872Z,4.47
2023-03-22T03:15:53.893Z,4.30
2023-03-22T03:18:35.041Z,3.53
2023-03-22T03:21:24.594Z,3.70
2023-03-22T03:24:12.286Z,506.50
2023-03-22T03:27:00.882Z,491.88
2023-03-22T03:29:47.251Z,481.55
2023-03-22T03:32:28.423Z,489.52
2023-03-22T03:35:22.129Z,481.83
2023-03-22T03:37:53.672Z,471.08
2023-03-22T03:40:24.587Z,512.17
2023-03-22T03:42:54.191Z,542.63
2023-03-22T03:45:22.092Z,46.38
2023-03-22T03:47:56.831Z,2.67
2023-03-22T03:50:25.825Z,3.38
2023-03-22T03:52:54.237Z,3.40
2023-03-22T03:55:22.466Z,2.17
2023-03-22T03:57:49.399Z,2.25
2023-03-22T04:00:16.935Z,2.78
2023-03-22T04:03:05.748Z,2.65
2023-03-22T04:05:55.910Z,3.67
2023-03-22T04:08:23.074Z,2.15
2023-03-22T04:10:51.823Z,3.28
2023-03-22T04:13:24.590Z,2.38
2023-03-22T04:15:58.032Z,4.15
2023-03-22T04:18:24.923Z,4.68
2023-03-22T04:20:53.448Z,3.67
2023-03-22T04:23:23.033Z,3.30
2023-03-22T04:25:50.721Z,2.00
2023-03-22T04:28:26.325Z,2.80
2023-03-22T04:30:53.301Z,2.63
2023-03-22T04:33:22.873Z,3.45
2023-03-22T04:36:10.663Z,3.40
2023-03-22T04:38:51.104Z,3.72
2023-03-22T04:41:21.664Z,69.70
2023-03-22T04:43:51.636Z,24.45
2023-03-22T04:46:21.173Z,4.57
2023-03-22T04:48:53.411Z,4.03
2023-03-22T04:51:20.984Z,3.50
2023-03-22T04:54:06.209Z,71.72
2023-03-22T04:56:33.298Z,3.55
2023-03-22T04:59:00.023Z,65.93
2023-03-22T05:01:27.772Z,273.65
2023-03-22T05:04:04.612Z,101.45
2023-03-22T05:06:33.294Z,80.72
2023-03-22T05:09:16.152Z,5.10
2023-03-22T05:11:42.990Z,9.70
2023-03-22T05:14:20.168Z,30.40
2023-03-22T05:16:46.875Z,2.05
2023-03-22T05:19:16.291Z,2.13
2023-03-22T05:21:48.815Z,3.50
2023-03-22T05:24:15.518Z,128.75
2023-03-22T05:26:46.259Z,308.50
2023-03-22T05:29:13.317Z,512.63
2023-03-22T05:31:59.981Z,406.55
2023-03-22T05:34:35.245Z,316.25
2023-03-22T05:37:10.195Z,211.30
2023-03-22T05:39:49.429Z,441.55
2023-03-22T05:42:16.726Z,542.22
2023-03-22T05:44:43.497Z,12.30
2023-03-22T05:47:12.646Z,124.57
2023-03-22T05:49:48.582Z,19.75
2023-03-22T05:52:15.779Z,7.55
2023-03-22T05:55:02.742Z,8.68
2023-03-22T05:57:30.141Z,6.05
2023-03-22T05:59:58.149Z,6.50
2023-03-22T06:02:29.077Z,4.10
2023-03-22T06:04:55.995Z,15.27
2023-03-22T06:07:24.152Z,52.00
2023-03-22T06:09:54.282Z,57.20
2023-03-22T06:12:24.742Z,102.05
2023-03-22T06:15:04.810Z,118.18
2023-03-22T06:17:54.472Z,159.63
2023-03-22T06:20:25.776Z,52.63
2023-03-22T06:22:59.275Z,36.38
2023-03-22T06:25:26.005Z,21.58
2023-03-22T06:27:52.931Z,13.43
2023-03-22T06:30:20.473Z,8.63
2023-03-22T06:33:06.195Z,11.02
2023-03-22T06:35:37.025Z,6.88
2023-03-22T06:38:05.352Z,11.25
2023-03-22T06:40:32.651Z,8.25
2023-03-22T06:43:02.868Z,10.88
2023-03-22T06:45:33.481Z,8.05
2023-03-22T06:48:01.755Z,8.18
2023-03-22T06:51:04.132Z,11.30
2023-03-22T06:53:34.377Z,12.35
2023-03-22T06:56:02.705Z,11.18
2023-03-22T06:58:30.137Z,6.38
2023-03-22T07:00:58.120Z,5.50
2023-03-22T07:03:26.228Z,5.38
2023-03-22T07:06:11.844Z,4.38
2023-03-22T07:08:42.078Z,4.80
2023-03-22T07:11:10.259Z,4.07
2023-03-22T07:13:37.497Z,2.72
2023-03-22T07:16:10.317Z,4.28
2023-03-22T07:18:50.982Z,5.50
2023-03-22T07:21:17.827Z,6.68
2023-03-22T07:23:49.311Z,5.80
2023-03-22T07:26:18.296Z,5.30
2023-03-22T07:28:47.830Z,4.47
2023-03-22T07:31:15.613Z,3.20
2023-03-22T07:33:52.148Z,3.85
2023-03-22T07:36:23.802Z,5.00
2023-03-22T07:38:51.431Z,5.50
2023-03-22T07:41:25.724Z,3.58
2023-03-22T07:44:17.884Z,97.00
2023-03-22T07:46:55.989Z,3.70
2023-03-22T07:49:31.522Z,2.83
2023-03-22T07:52:09.469Z,566.08
2023-03-22T07:54:36.177Z,400.77
2023-03-22T07:57:06.784Z,248.38
2023-03-22T07:59:39.923Z,441.48
2023-03-22T08:02:08.414Z,290.20
2023-03-22T08:04:40.784Z,370.48
2023-03-22T08:07:13.774Z,435.30
2023-03-22T08:09:40.851Z,443.25
2023-03-22T08:12:07.610Z,332.58
2023-03-22T08:14:37.330Z,427.23
2023-03-22T08:17:08.511Z,419.15
2023-03-22T08:19:35.465Z,309.77
2023-03-22T08:22:02.362Z,486.98
2023-03-22T08:24:58.453Z,433.02
2023-03-22T08:27:29.043Z,452.63
2023-03-22T08:29:58.210Z,418.85
2023-03-22T08:32:24.925Z,526.83
2023-03-22T08:34:52.628Z,558.75
2023-03-22T08:37:20.347Z,476.10
2023-03-22T08:39:47.587Z,588.78
2023-03-22T08:42:24.820Z,568.97
2023-03-22T08:44:52.424Z,524.55
2023-03-22T08:47:21.058Z,3.67
2023-03-22T08:49:51.879Z,5.32
2023-03-22T08:52:28.271Z,3.50
2023-03-22T08:55:06.265Z,2.70
2023-03-22T08:58:05.245Z,3.50
2023-03-22T09:00:48.965Z,2.42
2023-03-22T09:03:36.568Z,5.50
2023-03-22T09:06:03.544Z,4.85
2023-03-22T09:08:35.289Z,3.92
2023-03-22T09:11:12.146Z,2.30
2023-03-22T09:13:39.253Z,17.10
2023-03-22T09:16:08.767Z,3.25
2023-03-22T09:18:39.741Z,3.55
2023-03-22T09:21:12.037Z,5.45
2023-03-22T09:23:56.395Z,2.38
2023-03-22T09:26:30.782Z,3.42
2023-03-22T09:28:57.489Z,3.53
2023-03-22T09:31:24.263Z,3.40
2023-03-22T09:34:01.933Z,2.47
2023-03-22T09:36:28.603Z,2.95
2023-03-22T09:38:56.332Z,5.45
2023-03-22T09:41:32.353Z,3.17
2023-03-22T09:44:05.256Z,6.47
2023-03-22T09:46:53.711Z,5.17
2023-03-22T09:49:26.120Z,3.10
2023-03-22T09:51:55.999Z,191.98
2023-03-22T09:54:38.447Z,233.85
2023-03-22T09:57:26.296Z,531.10
2023-03-22T10:00:16.368Z,144.18
2023-03-22T10:03:10.701Z,335.42
2023-03-22T10:05:45.280Z,276.02
2023-03-22T10:08:15.248Z,585.45
2023-03-22T10:10:43.127Z,184.90
2023-03-22T10:13:27.504Z,268.13
2023-03-22T10:15:57.134Z,125.75
2023-03-22T10:18:43.379Z,347.92
2023-03-22T10:21:12.768Z,275.88
2023-03-22T10:23:39.393Z,567.03
2023-03-22T10:26:08.803Z,616.38
2023-03-22T10:28:40.313Z,607.65
2023-03-22T10:31:10.651Z,573.67
2023-03-22T10:33:50.321Z,429.42
2023-03-22T10:36:23.451Z,618.80
2023-03-22T10:38:57.668Z,624.60
2023-03-22T10:41:27.449Z,583.03
2023-03-22T10:43:58.491Z,577.63
2023-03-22T10:46:28.812Z,608.70
2023-03-22T10:48:59.886Z,605.97
2023-03-22T10:51:32.347Z,612.65
2023-03-22T10:56:28.073Z,591.15
2023-03-22T10:58:56.435Z,607.40
2023-03-22T11:01:36.820Z,607.75
2023-03-22T11:04:03.556Z,614.22
2023-03-22T11:06:36.921Z,610.40
2023-03-22T11:09:15.627Z,616.00
2023-03-22T11:11:53.406Z,617.42
2023-03-22T11:14:23.320Z,628.80
2023-03-22T11:16:59.526Z,625.22
2023-03-22T11:19:31.874Z,620.33
2023-03-22T11:21:59.813Z,607.03
2023-03-22T11:24:28.376Z,605.88
2023-03-22T11:27:22.836Z,620.88
2023-03-22T11:29:55.510Z,608.15
2023-03-22T11:32:35.463Z,612.05
2023-03-22T11:35:16.769Z,610.95
2023-03-22T11:37:45.823Z,612.40
2023-03-22T11:40:22.438Z,619.58
2023-03-22T11:42:55.431Z,621.92
2023-03-22T11:45:29.226Z,618.95
2023-03-22T11:48:05.053Z,619.83
2023-03-22T11:50:35.842Z,620.30
2023-03-22T11:53:04.367Z,623.88
2023-03-22T11:55:31.893Z,627.05
2023-03-22T11:57:58.802Z,627.10
2023-03-22T12:00:29.368Z,639.35
2023-03-22T12:03:04.722Z,629.97
2023-03-22T12:05:34.665Z,625.30
2023-03-22T12:08:11.837Z,638.35
2023-03-22T12:10:44.042Z,631.05
2023-03-22T12:13:32.953Z,621.80
2023-03-22T12:16:04.769Z,398.35
2023-03-22T12:18:46.441Z,615.78
2023-03-22T12:21:13.126Z,605.70
2023-03-22T12:23:39.872Z,428.15
2023-03-22T12:26:15.739Z,625.92
2023-03-22T12:29:03.609Z,628.03
2023-03-22T12:31:42.167Z,610.92
2023-03-22T12:34:18.049Z,622.08
2023-03-22T12:36:57.148Z,617.08
2023-03-22T12:39:31.495Z,615.95
2023-03-22T12:42:06.329Z,618.45
2023-03-22T12:44:38.060Z,624.47
2023-03-22T12:47:22.864Z,622.13
2023-03-22T12:50:03.832Z,628.90
2023-03-22T12:52:45.851Z,625.35
2023-03-22T12:55:25.353Z,622.35
2023-03-22T12:57:54.490Z,625.33
2023-03-22T13:00:55.557Z,630.70
2023-03-22T13:03:28.674Z,627.30
2023-03-22T13:06:05.906Z,628.63
2023-03-22T13:09:24.049Z,629.83
2023-03-22T13:12:26.186Z,628.75
2023-03-22T13:14:52.836Z,627.77
2023-03-22T13:17:22.522Z,609.33
2023-03-22T13:20:11.416Z,627.72
2023-03-22T13:22:38.174Z,627.55
2023-03-22T13:25:12.807Z,635.55
2023-03-22T13:27:51.219Z,637.95
2023-03-22T13:30:21.649Z,645.85
2023-03-22T13:32:56.250Z,635.78
2023-03-22T13:35:34.398Z,641.20
2023-03-22T13:38:03.654Z,649.20
2023-03-22T13:40:45.491Z,652.95
2023-03-22T13:43:29.662Z,658.83
2023-03-22T13:46:17.265Z,646.95
2023-03-22T13:48:46.877Z,656.33
2023-03-22T13:51:23.145Z,665.40
2023-03-22T13:54:07.321Z,643.88
2023-03-22T13:57:00.755Z,667.13
2023-03-22T13:59:27.692Z,674.50
2023-03-22T14:02:00.258Z,681.47
2023-03-22T14:07:29.104Z,664.47
2023-03-22T14:10:01.269Z,659.08
2023-03-22T14:12:36.522Z,652.30
2023-03-22T14:15:06.635Z,661.70
2023-03-22T14:17:41.458Z,666.80
2023-03-22T14:20:14.183Z,666.83
